createdAt,value
2022-09-23T00:01:08.573Z,15.38
2022-09-23T00:03:38.171Z,15.40
2022-09-23T00:06:07.763Z,15.40
2022-09-23T00:08:35.129Z,15.38
2022-09-23T00:11:22.961Z,15.36
2022-09-23T00:13:52.443Z,15.31
2022-09-23T00:16:22.875Z,15.30
2022-09-23T00:18:50.582Z,15.28
2022-09-23T00:21:18.933Z,15.30
2022-09-23T00:23:45.456Z,15.28
2022-09-23T00:26:14.001Z,15.27
2022-09-23T00:28:40.654Z,15.24
2022-09-23T00:31:12.410Z,15.22
2022-09-23T00:33:40.496Z,15.21
2022-09-23T00:36:11.008Z,15.19
2022-09-23T00:38:38.793Z,15.17
2022-09-23T00:41:05.634Z,15.15
2022-09-23T00:43:39.726Z,15.14
2022-09-23T00:46:09.058Z,15.09
2022-09-23T00:48:39.126Z,15.09
2022-09-23T00:51:09.577Z,15.08
2022-09-23T00:53:36.209Z,14.99
2022-09-23T00:56:07.247Z,15.07
2022-09-23T00:58:37.216Z,14.96
2022-09-23T01:01:04.500Z,14.95
2022-09-23T01:03:31.243Z,15.00
2022-09-23T01:05:58.876Z,14.84
2022-09-23T01:08:27.012Z,15.02
2022-09-23T01:11:27.958Z,14.95
2022-09-23T01:14:13.251Z,14.92
2022-09-23T01:16:58.338Z,14.96
2022-09-23T01:19:46.649Z,14.95
2022-09-23T01:22:35.637Z,14.89
2022-09-23T01:25:05.022Z,14.96
2022-09-23T01:27:56.687Z,14.91
2022-09-23T01:30:45.930Z,14.93
2022-09-23T01:33:37.246Z,14.93
2022-09-23T01:36:10.554Z,14.94
2022-09-23T01:38:44.719Z,14.94
2022-09-23T01:41:30.052Z,14.93
2022-09-23T01:44:05.680Z,14.88
2022-09-23T01:46:47.800Z,14.92
2022-09-23T01:49:25.924Z,14.92
2022-09-23T01:52:05.821Z,14.91
2022-09-23T01:54:57.781Z,14.92
2022-09-23T01:57:40.175Z,14.86
2022-09-23T02:00:14.179Z,14.91
2022-09-23T02:02:49.789Z,14.91
2022-09-23T02:05:30.201Z,14.90
2022-09-23T02:08:15.772Z,14.83
2022-09-23T02:11:00.552Z,14.83
2022-09-23T02:13:48.639Z,14.87
2022-09-23T02:16:25.471Z,14.84
2022-09-23T02:18:57.742Z,14.86
2022-09-23T02:21:30.030Z,14.87
2022-09-23T02:24:15.077Z,14.87
2022-09-23T02:26:54.167Z,14.85
2022-09-23T02:29:26.933Z,14.89
2022-09-23T02:31:56.532Z,14.89
2022-09-23T02:34:44.774Z,14.89
2022-09-23T02:37:27.883Z,14.90
2022-09-23T02:40:06.250Z,14.86
2022-09-23T02:43:10.556Z,14.89
2022-09-23T02:45:38.963Z,14.57
2022-09-23T02:48:33.224Z,14.85
2022-09-23T02:51:02.294Z,14.89
2022-09-23T02:53:30.347Z,14.77
2022-09-23T02:55:56.808Z,14.89
2022-09-23T02:58:23.517Z,14.87
2022-09-23T03:01:08.443Z,14.91
2022-09-23T03:03:49.378Z,14.89
2022-09-23T03:06:30.499Z,14.89
2022-09-23T03:09:24.941Z,14.92
2022-09-23T03:12:02.916Z,14.92
2022-09-23T03:14:41.042Z,14.90
2022-09-23T03:17:20.638Z,14.80
2022-09-23T03:19:58.224Z,14.90
2022-09-23T03:22:31.149Z,14.92
2022-09-23T03:25:07.195Z,14.78
2022-09-23T03:27:35.929Z,14.89
2022-09-23T03:30:04.655Z,14.89
2022-09-23T03:32:34.240Z,14.88
2022-09-23T03:35:05.782Z,14.86
2022-09-23T03:37:53.305Z,14.83
2022-09-23T03:40:33.085Z,14.81
2022-09-23T03:43:01.506Z,14.78
2022-09-23T03:45:33.100Z,14.80
2022-09-23T03:48:00.644Z,14.59
2022-09-23T03:50:27.818Z,14.80
2022-09-23T03:52:54.298Z,14.80
2022-09-23T03:55:21.237Z,14.76
2022-09-23T03:57:47.963Z,14.77
2022-09-23T04:00:15.093Z,14.75
2022-09-23T04:02:42.153Z,14.83
2022-09-23T04:05:10.082Z,14.78
2022-09-23T04:07:36.530Z,14.81
2022-09-23T04:10:04.892Z,14.82
2022-09-23T04:12:31.353Z,14.87
2022-09-23T04:14:58.965Z,14.86
2022-09-23T04:17:25.430Z,14.89
2022-09-23T04:19:51.845Z,14.89
2022-09-23T04:22:18.372Z,14.82
2022-09-23T04:24:44.851Z,14.97
2022-09-23T04:27:11.305Z,14.93
2022-09-23T04:29:37.810Z,14.96
2022-09-23T04:32:04.389Z,14.98
2022-09-23T04:34:30.810Z,14.92
2022-09-23T04:36:57.286Z,15.01
2022-09-23T04:39:23.716Z,14.87
2022-09-23T04:41:50.169Z,15.02
2022-09-23T04:44:17.264Z,15.05
2022-09-23T04:46:48.211Z,15.09
2022-09-23T04:49:15.726Z,15.11
2022-09-23T04:51:43.467Z,15.09
2022-09-23T04:54:11.865Z,15.12
2022-09-23T04:56:39.700Z,15.08
2022-09-23T04:59:06.957Z,14.93
2022-09-23T05:01:35.052Z,15.09
2022-09-23T05:04:08.431Z,15.03
2022-09-23T05:06:35.769Z,15.07
2022-09-23T05:09:04.421Z,15.09
2022-09-23T05:11:31.633Z,15.05
2022-09-23T05:13:58.618Z,15.05
2022-09-23T05:16:25.618Z,14.92
2022-09-23T05:18:53.070Z,14.91
2022-09-23T05:21:22.443Z,15.06
2022-09-23T05:23:54.231Z,15.06
2022-09-23T05:26:22.521Z,15.02
2022-09-23T05:28:49.025Z,15.07
2022-09-23T05:31:20.253Z,14.92
2022-09-23T05:33:51.654Z,15.09
2022-09-23T05:36:18.767Z,14.89
2022-09-23T05:38:45.439Z,15.03
2022-09-23T05:41:13.626Z,15.09
2022-09-23T05:43:41.220Z,15.02
2022-09-23T05:46:11.403Z,15.05
2022-09-23T05:48:39.303Z,15.00
2022-09-23T05:51:11.153Z,15.06
2022-09-23T05:53:39.952Z,15.07
2022-09-23T05:56:09.695Z,15.08
2022-09-23T05:58:36.349Z,15.04
2022-09-23T06:01:12.266Z,14.96
2022-09-23T06:03:39.433Z,14.85
2022-09-23T06:06:06.580Z,14.97
2022-09-23T06:08:37.204Z,14.99
2022-09-23T06:11:09.721Z,14.99
2022-09-23T06:13:47.380Z,15.09
2022-09-23T06:16:18.720Z,14.97
2022-09-23T06:18:46.052Z,15.10
2022-09-23T06:21:17.096Z,15.07
2022-09-23T06:23:47.015Z,15.11
2022-09-23T06:26:49.716Z,14.84
2022-09-23T06:30:11.888Z,14.83
2022-09-23T06:39:37.896Z,14.77
2022-09-23T06:42:06.837Z,14.73
2022-09-23T06:44:35.965Z,15.10
2022-09-23T06:47:09.568Z,15.28
2022-09-23T06:49:57.720Z,14.99
2022-09-23T06:52:27.781Z,15.13
2022-09-23T06:54:57.133Z,15.15
2022-09-23T06:57:25.992Z,15.32
2022-09-23T06:59:52.701Z,15.29
2022-09-23T07:02:23.878Z,15.18
2022-09-23T07:04:51.536Z,15.11
2022-09-23T07:07:33.393Z,15.16
2022-09-23T07:12:56.250Z,15.35
2022-09-23T07:15:29.244Z,14.96
2022-09-23T07:18:00.011Z,15.10
2022-09-23T07:20:26.631Z,15.30
2022-09-23T07:23:06.602Z,15.40
2022-09-23T07:29:05.236Z,15.00
2022-09-23T07:37:48.502Z,15.24
2022-09-23T07:44:57.859Z,14.97
2022-09-23T07:47:31.527Z,15.39
2022-09-23T07:49:58.393Z,15.36
2022-09-23T07:52:25.144Z,15.50
2022-09-23T07:54:54.308Z,15.71
2022-09-23T07:57:20.815Z,15.58
2022-09-23T07:59:50.370Z,15.47
2022-09-23T08:02:17.020Z,15.71
2022-09-23T08:04:44.234Z,15.73
2022-09-23T08:07:13.009Z,15.65
2022-09-23T08:09:52.565Z,15.86
2022-09-23T08:12:22.275Z,15.67
2022-09-23T08:14:48.760Z,15.81
2022-09-23T08:17:15.293Z,15.88
2022-09-23T08:19:45.510Z,15.92
2022-09-23T08:22:12.373Z,15.83
2022-09-23T08:24:41.155Z,16.00
2022-09-23T08:27:07.800Z,15.92
2022-09-23T08:29:37.078Z,15.84
2022-09-23T08:32:22.042Z,15.83
2022-09-23T08:34:51.746Z,15.81
2022-09-23T08:37:18.238Z,15.87
2022-09-23T08:39:45.318Z,15.77
2022-09-23T08:42:24.181Z,15.61
2022-09-23T08:44:57.582Z,15.81
2022-09-23T08:47:53.498Z,15.75
2022-09-23T08:50:46.464Z,15.74
2022-09-23T08:53:36.358Z,15.78
2022-09-23T08:56:14.264Z,15.70
2022-09-23T08:58:55.579Z,15.80
2022-09-23T09:01:45.595Z,15.80
2022-09-23T09:04:39.950Z,15.83
2022-09-23T09:10:06.591Z,15.88
2022-09-23T09:12:51.445Z,15.88
2022-09-23T09:15:26.613Z,15.91
2022-09-23T09:18:07.915Z,15.78
2022-09-23T09:20:57.634Z,15.95
2022-09-23T09:23:40.675Z,15.93
2022-09-23T09:26:23.287Z,15.96
2022-09-23T09:29:23.846Z,15.79
2022-09-23T09:31:57.817Z,15.84
2022-09-23T09:34:24.390Z,15.97
2022-09-23T09:37:13.698Z,15.82
2022-09-23T09:39:40.975Z,15.75
2022-09-23T09:42:19.084Z,15.57
2022-09-23T09:44:59.383Z,15.75
2022-09-23T09:47:47.736Z,15.86
2022-09-23T09:50:22.109Z,15.89
2022-09-23T09:52:49.381Z,15.88
2022-09-23T09:55:29.535Z,15.61
2022-09-23T09:58:04.028Z,15.91
2022-09-23T10:00:30.639Z,15.96
2022-09-23T10:03:15.388Z,16.01
2022-09-23T10:05:45.155Z,16.08
2022-09-23T10:08:35.208Z,16.16
2022-09-23T10:11:05.471Z,16.06
2022-09-23T10:13:32.209Z,16.23
2022-09-23T10:16:02.296Z,16.26
2022-09-23T10:18:49.296Z,16.29
2022-09-23T10:21:23.110Z,16.20
2022-09-23T10:24:01.625Z,16.05
2022-09-23T10:26:38.884Z,16.00
2022-09-23T10:29:22.413Z,16.00
2022-09-23T10:32:20.605Z,16.12
2022-09-23T10:34:52.364Z,15.97
2022-09-23T10:37:31.140Z,16.22
2022-09-23T10:40:17.133Z,16.25
2022-09-23T10:43:36.400Z,16.33
2022-09-23T10:46:25.564Z,16.26
2022-09-23T10:49:26.802Z,16.45
2022-09-23T10:52:16.333Z,16.53
2022-09-23T10:55:21.811Z,16.59
2022-09-23T10:58:04.352Z,16.25
2022-09-23T11:01:09.078Z,16.62
2022-09-23T11:04:18.092Z,16.60
2022-09-23T11:07:00.571Z,16.67
2022-09-23T11:09:49.883Z,16.75
2022-09-23T11:12:41.672Z,16.87
2022-09-23T11:15:21.715Z,17.03
2022-09-23T11:18:18.152Z,17.19
2022-09-23T11:20:54.618Z,17.02
2022-09-23T11:23:27.343Z,17.12
2022-09-23T11:26:10.710Z,16.97
2022-09-23T11:28:42.508Z,17.05
2022-09-23T11:31:33.722Z,17.04
2022-09-23T11:34:21.415Z,17.03
2022-09-23T11:37:13.321Z,16.75
2022-09-23T11:39:52.526Z,16.77
2022-09-23T11:42:27.067Z,16.97
2022-09-23T11:45:03.867Z,16.90
2022-09-23T11:47:43.838Z,17.03
2022-09-23T11:50:18.931Z,16.94
2022-09-23T11:52:54.496Z,17.06
2022-09-23T11:55:28.807Z,16.94
2022-09-23T11:58:01.417Z,16.87
2022-09-23T12:00:39.648Z,17.05
2022-09-23T12:03:35.941Z,17.49
2022-09-23T12:06:34.587Z,17.87
2022-09-23T12:09:41.033Z,17.93
2022-09-23T12:12:26.851Z,18.42
2022-09-23T12:15:04.312Z,18.72
2022-09-23T12:17:49.713Z,18.82
2022-09-23T12:20:38.342Z,18.64
2022-09-23T12:23:28.234Z,18.51
2022-09-23T12:26:03.950Z,18.45
2022-09-23T12:28:36.083Z,18.28
2022-09-23T12:31:11.239Z,18.12
2022-09-23T12:33:38.693Z,18.06
2022-09-23T12:36:06.610Z,18.16
2022-09-23T12:38:56.901Z,17.74
2022-09-23T12:41:24.157Z,18.10
2022-09-23T12:44:00.142Z,18.14
2022-09-23T12:46:27.625Z,17.94
2022-09-23T12:49:00.570Z,18.28
2022-09-23T12:51:29.783Z,18.22
2022-09-23T12:54:14.277Z,18.26
2022-09-23T12:56:40.814Z,18.44
2022-09-23T12:59:10.319Z,18.46
2022-09-23T13:01:38.158Z,18.38
2022-09-23T13:04:23.877Z,18.49
2022-09-23T13:07:15.296Z,18.55
2022-09-23T13:09:46.633Z,18.59
2022-09-23T13:12:21.434Z,18.56
2022-09-23T13:14:52.509Z,18.59
2022-09-23T13:17:35.849Z,18.37
2022-09-23T13:20:06.444Z,18.51
2022-09-23T13:22:54.147Z,18.51
2022-09-23T13:25:33.686Z,18.46
2022-09-23T13:28:13.283Z,18.35
2022-09-23T13:30:49.191Z,18.12
2022-09-23T13:33:24.083Z,18.10
2022-09-23T13:35:52.844Z,18.05
2022-09-23T13:38:22.489Z,17.84
2022-09-23T13:40:49.558Z,17.83
2022-09-23T13:43:25.123Z,17.82
2022-09-23T13:45:51.896Z,17.76
2022-09-23T13:48:22.813Z,17.69
2022-09-23T13:50:53.270Z,17.68
2022-09-23T13:53:31.151Z,17.66
2022-09-23T13:56:15.702Z,17.63
2022-09-23T13:58:43.385Z,17.63
2022-09-23T14:01:34.310Z,17.81
2022-09-23T14:04:02.557Z,17.90
2022-09-23T14:06:37.145Z,17.89
2022-09-23T14:09:03.929Z,18.02
2022-09-23T14:11:33.511Z,18.04
2022-09-23T14:14:07.594Z,17.95
2022-09-23T14:16:38.310Z,18.31
2022-09-23T14:19:06.411Z,18.03
2022-09-23T14:21:38.305Z,18.32
2022-09-23T14:24:22.581Z,18.38
2022-09-23T14:26:55.707Z,18.56
2022-09-23T14:29:31.573Z,18.71
2022-09-23T14:32:05.984Z,18.96
2022-09-23T14:34:57.663Z,19.04
2022-09-23T14:37:44.849Z,19.05
2022-09-23T14:40:17.978Z,19.37
2022-09-23T14:43:07.883Z,19.43
2022-09-23T14:45:37.270Z,19.49
2022-09-23T14:48:10.559Z,19.51
2022-09-23T14:50:39.301Z,19.84
2022-09-23T14:53:35.169Z,20.21
2022-09-23T14:56:08.712Z,20.49
2022-09-23T14:58:43.026Z,20.62
2022-09-23T15:01:26.276Z,20.53
2022-09-23T15:03:54.382Z,20.35
2022-09-23T15:06:23.117Z,20.15
2022-09-23T15:08:51.687Z,20.08
2022-09-23T15:11:18.329Z,19.97
2022-09-23T15:13:51.256Z,20.02
2022-09-23T15:16:26.038Z,20.01
2022-09-23T15:18:59.007Z,20.16
2022-09-23T15:21:40.898Z,20.25
2022-09-23T15:24:37.738Z,20.51
2022-09-23T15:27:12.107Z,20.48
2022-09-23T15:29:38.874Z,20.51
2022-09-23T15:32:08.480Z,20.26
2022-09-23T15:34:38.774Z,20.21
2022-09-23T15:37:23.909Z,20.19
2022-09-23T15:39:50.947Z,20.06
2022-09-23T15:42:18.246Z,20.04
2022-09-23T15:44:44.824Z,19.82
2022-09-23T15:47:18.927Z,19.85
2022-09-23T15:49:48.959Z,19.81
2022-09-23T15:52:16.477Z,19.78
2022-09-23T15:54:43.816Z,19.65
2022-09-23T15:57:11.188Z,19.54
2022-09-23T15:59:38.134Z,19.39
2022-09-23T16:02:13.344Z,19.28
2022-09-23T16:04:39.910Z,19.18
2022-09-23T16:07:13.459Z,19.07
2022-09-23T16:09:40.031Z,18.91
2022-09-23T16:12:11.884Z,18.79
2022-09-23T16:14:38.421Z,18.92
2022-09-23T16:17:05.112Z,18.52
2022-09-23T16:19:34.116Z,18.63
2022-09-23T16:22:00.796Z,18.72
2022-09-23T16:24:28.264Z,18.59
2022-09-23T16:26:59.783Z,18.48
2022-09-23T16:29:27.577Z,18.50
2022-09-23T16:31:55.632Z,18.41
2022-09-23T16:34:22.319Z,18.13
2022-09-23T16:36:48.985Z,18.18
2022-09-23T16:39:15.837Z,17.98
2022-09-23T16:41:43.520Z,18.02
2022-09-23T16:44:12.519Z,17.90
2022-09-23T16:46:42.771Z,17.89
2022-09-23T16:49:12.022Z,17.86
2022-09-23T16:51:38.926Z,17.73
2022-09-23T16:54:11.788Z,17.72
2022-09-23T16:56:43.754Z,17.73
2022-09-23T16:59:11.661Z,17.57
2022-09-23T17:01:56.829Z,17.48
2022-09-23T17:04:23.360Z,17.50
2022-09-23T17:06:52.233Z,17.60
2022-09-23T17:09:21.171Z,17.47
2022-09-23T17:11:58.718Z,17.36
2022-09-23T17:14:25.246Z,17.35
2022-09-23T17:16:51.778Z,17.43
2022-09-23T17:19:18.346Z,17.39
2022-09-23T17:21:44.872Z,17.41
2022-09-23T17:24:11.515Z,17.17
2022-09-23T17:26:38.217Z,17.34
2022-09-23T17:29:05.652Z,17.23
2022-09-23T17:31:32.439Z,17.22
2022-09-23T17:33:59.158Z,17.21
2022-09-23T17:36:25.606Z,17.25
2022-09-23T17:38:55.000Z,17.17
2022-09-23T17:41:21.948Z,17.19
2022-09-23T17:43:53.851Z,17.14
2022-09-23T17:46:20.383Z,17.13
2022-09-23T17:48:47.253Z,17.07
2022-09-23T17:51:19.907Z,16.86
2022-09-23T17:53:48.314Z,17.03
2022-09-23T17:56:29.984Z,16.91
2022-09-23T17:59:00.387Z,16.99
2022-09-23T18:01:27.722Z,17.00
2022-09-23T18:03:59.649Z,16.86
2022-09-23T18:06:28.993Z,16.79
2022-09-23T18:08:58.384Z,16.68
2022-09-23T18:11:27.623Z,16.87
2022-09-23T18:13:59.599Z,16.86
2022-09-23T18:16:31.551Z,16.63
2022-09-23T18:19:00.583Z,16.74
2022-09-23T18:21:32.579Z,16.78
2022-09-23T18:24:28.273Z,16.54
2022-09-23T18:26:49.701Z,16.74
2022-09-23T18:29:16.649Z,16.66
2022-09-23T18:31:44.394Z,16.70
2022-09-23T18:34:13.102Z,16.71
2022-09-23T18:36:40.354Z,16.65
2022-09-23T18:39:07.333Z,16.68
2022-09-23T18:41:35.067Z,16.68
2022-09-23T18:44:01.871Z,16.68
2022-09-23T18:46:29.781Z,16.70
2022-09-23T18:49:15.498Z,16.63
2022-09-23T18:51:54.586Z,16.69
2022-09-23T18:54:23.016Z,16.65
2022-09-23T18:56:52.453Z,16.67
2022-09-23T18:59:20.838Z,16.48
2022-09-23T19:01:50.120Z,16.65
2022-09-23T19:04:19.278Z,16.62
2022-09-23T19:06:46.131Z,16.59
2022-09-23T19:09:14.036Z,16.55
2022-09-23T19:11:40.547Z,16.58
2022-09-23T19:14:11.188Z,16.47
2022-09-23T19:16:39.248Z,16.50
2022-09-23T19:19:06.344Z,16.54
2022-09-23T19:21:33.428Z,16.45
2022-09-23T19:24:05.203Z,16.30
2022-09-23T19:26:38.092Z,16.39
2022-09-23T19:29:06.172Z,16.39
2022-09-23T19:31:35.543Z,16.37
2022-09-23T19:34:06.047Z,16.33
2022-09-23T19:36:34.247Z,16.27
2022-09-23T19:39:06.888Z,16.28
2022-09-23T19:41:35.408Z,16.21
2022-09-23T19:44:03.301Z,16.30
2022-09-23T19:46:31.171Z,16.25
2022-09-23T19:48:58.412Z,16.19
2022-09-23T19:51:24.911Z,16.25
2022-09-23T19:53:51.461Z,16.16
2022-09-23T19:56:18.281Z,16.21
2022-09-23T19:58:53.299Z,16.18
2022-09-23T20:01:21.649Z,16.17
2022-09-23T20:03:48.766Z,16.15
2022-09-23T20:06:16.410Z,16.15
2022-09-23T20:08:44.316Z,16.03
2022-09-23T20:11:14.812Z,16.10
2022-09-23T20:13:43.921Z,16.04
2022-09-23T20:16:14.646Z,16.09
2022-09-23T20:18:42.267Z,16.07
2022-09-23T20:21:11.977Z,16.07
2022-09-23T20:23:38.543Z,16.03
2022-09-23T20:26:24.914Z,15.97
2022-09-23T20:28:51.580Z,15.91
2022-09-23T20:31:20.788Z,15.98
2022-09-23T20:33:57.384Z,15.96
2022-09-23T20:36:27.586Z,15.96
2022-09-23T20:39:01.960Z,15.94
2022-09-23T20:41:30.083Z,15.91
2022-09-23T20:43:59.580Z,15.88
2022-09-23T20:46:27.186Z,15.59
2022-09-23T20:48:56.913Z,15.84
2022-09-23T20:51:24.880Z,15.88
2022-09-23T20:53:53.029Z,15.69
2022-09-23T20:56:23.825Z,15.84
2022-09-23T20:58:50.868Z,15.76
2022-09-23T21:01:19.401Z,15.82
2022-09-23T21:03:48.381Z,15.60
2022-09-23T21:06:17.138Z,15.70
2022-09-23T21:08:44.657Z,15.75
2022-09-23T21:11:14.942Z,15.59
2022-09-23T21:13:49.131Z,15.71
2022-09-23T21:16:17.707Z,15.57
2022-09-23T21:18:45.559Z,15.62
2022-09-23T21:21:14.063Z,15.58
2022-09-23T21:23:42.552Z,15.53
2022-09-23T21:26:21.106Z,15.57
2022-09-23T21:28:50.167Z,15.55
2022-09-23T21:31:25.668Z,15.53
2022-09-23T21:33:56.838Z,15.50
2022-09-23T21:36:24.777Z,15.35
2022-09-23T21:38:52.117Z,15.45
2022-09-23T21:41:19.377Z,15.38
2022-09-23T21:43:45.953Z,15.37
2022-09-23T21:46:15.387Z,15.20
2022-09-23T21:48:42.696Z,15.22
2022-09-23T21:51:40.867Z,15.29
2022-09-23T21:54:15.688Z,15.13
2022-09-23T21:56:43.837Z,15.21
2022-09-23T21:59:10.852Z,14.99
2022-09-23T22:01:40.881Z,15.08
2022-09-23T22:04:14.712Z,15.10
2022-09-23T22:06:41.613Z,15.07
2022-09-23T22:09:12.609Z,15.03
2022-09-23T22:11:58.629Z,14.99
2022-09-23T22:14:26.301Z,14.94
2022-09-23T22:16:57.860Z,14.92
2022-09-23T22:19:26.778Z,14.85
2022-09-23T22:21:53.947Z,14.82
2022-09-23T22:24:20.405Z,14.71
2022-09-23T22:26:47.190Z,14.74
2022-09-23T22:29:34.051Z,14.71
2022-09-23T22:32:22.928Z,14.55
2022-09-23T22:34:51.559Z,14.63
2022-09-23T22:37:30.465Z,14.56
2022-09-23T22:39:57.412Z,14.56
2022-09-23T22:42:24.322Z,14.52
2022-09-23T22:44:51.277Z,14.42
2022-09-23T22:47:19.106Z,14.46
2022-09-23T22:49:46.331Z,14.32
2022-09-23T22:52:14.856Z,14.39
2022-09-23T22:54:41.489Z,14.36
2022-09-23T22:57:09.130Z,14.35
2022-09-23T22:59:37.321Z,14.31
2022-09-23T23:02:05.059Z,14.22
2022-09-23T23:04:32.117Z,14.30
2022-09-23T23:06:58.992Z,14.29
2022-09-23T23:09:25.766Z,14.26
2022-09-23T23:11:52.272Z,14.17
2022-09-23T23:14:18.954Z,14.22
2022-09-23T23:16:46.059Z,14.13
2022-09-23T23:19:16.503Z,14.16
2022-09-23T23:21:44.823Z,14.07
2022-09-23T23:24:17.375Z,14.08
2022-09-23T23:26:44.901Z,14.06
2022-09-23T23:29:13.377Z,14.02
2022-09-23T23:31:40.333Z,13.81
2022-09-23T23:34:10.690Z,13.93
2022-09-23T23:36:37.478Z,13.84
2022-09-23T23:39:04.542Z,13.79
2022-09-23T23:41:31.621Z,13.73
2022-09-23T23:43:59.636Z,13.72
2022-09-23T23:46:28.252Z,13.68
2022-09-23T23:48:55.884Z,13.62
2022-09-23T23:51:23.296Z,13.59
2022-09-23T23:53:50.032Z,13.54
2022-09-23T23:56:18.863Z,13.46
2022-09-23T23:58:45.859Z,13.41
